createdAt,value
2022-10-28T00:01:18.628Z,5.15
2022-10-28T00:03:47.680Z,4.82
2022-10-28T00:06:20.544Z,5.55
2022-10-28T00:08:47.294Z,5.00
2022-10-28T00:11:20.967Z,5.63
2022-10-28T00:13:48.180Z,5.43
2022-10-28T00:16:24.280Z,5.03
2022-10-28T00:18:53.740Z,4.85
2022-10-28T00:21:23.610Z,4.70
2022-10-28T00:23:50.361Z,4.72
2022-10-28T00:26:19.570Z,5.18
2022-10-28T00:28:53.336Z,4.60
2022-10-28T00:31:22.433Z,4.78
2022-10-28T00:33:48.973Z,4.63
2022-10-28T00:36:16.952Z,4.70
2022-10-28T00:38:45.204Z,4.75
2022-10-28T00:41:13.553Z,4.10
2022-10-28T00:43:48.256Z,3.90
2022-10-28T00:46:29.970Z,3.78
2022-10-28T00:49:14.437Z,4.53
2022-10-28T00:51:42.338Z,4.45
2022-10-28T00:54:08.941Z,4.38
2022-10-28T00:56:42.801Z,4.50
2022-10-28T00:59:18.509Z,3.92
2022-10-28T01:01:45.206Z,4.13
2022-10-28T01:04:13.362Z,4.20
2022-10-28T01:06:41.592Z,4.00
2022-10-28T01:09:07.973Z,4.38
2022-10-28T01:11:51.280Z,3.80
2022-10-28T01:14:32.522Z,4.32
2022-10-28T01:17:04.943Z,4.18
2022-10-28T01:19:51.662Z,4.32
2022-10-28T01:22:33.778Z,4.10
2022-10-28T01:25:45.483Z,4.63
2022-10-28T01:31:25.798Z,4.70
2022-10-28T01:34:06.702Z,4.60
2022-10-28T01:36:42.166Z,4.78
2022-10-28T01:39:28.273Z,5.10
2022-10-28T01:42:06.939Z,4.32
2022-10-28T01:45:09.009Z,4.63
2022-10-28T01:48:01.929Z,4.40
2022-10-28T01:50:39.664Z,4.25
2022-10-28T01:53:21.195Z,4.65
2022-10-28T01:55:50.576Z,5.18
2022-10-28T01:58:21.243Z,4.50
2022-10-28T02:00:48.835Z,3.55
2022-10-28T02:03:16.236Z,4.35
2022-10-28T02:05:51.914Z,4.40
2022-10-28T02:08:18.277Z,4.53
2022-10-28T02:11:11.723Z,4.70
2022-10-28T02:13:44.130Z,3.67
2022-10-28T02:16:10.437Z,4.50
2022-10-28T02:18:58.470Z,4.18
2022-10-28T02:21:42.706Z,3.78
2022-10-28T02:24:22.278Z,4.25
2022-10-28T02:27:03.860Z,5.20
2022-10-28T02:29:40.919Z,4.05
2022-10-28T02:32:13.745Z,4.30
2022-10-28T02:34:44.610Z,4.70
2022-10-28T02:37:38.910Z,4.82
2022-10-28T02:40:12.351Z,4.93
2022-10-28T02:42:48.748Z,4.30
2022-10-28T02:45:28.117Z,3.83
2022-10-28T02:48:00.172Z,4.78
2022-10-28T02:50:33.417Z,4.32
2022-10-28T02:53:02.489Z,4.50
2022-10-28T02:55:35.170Z,4.57
2022-10-28T02:58:01.817Z,4.57
2022-10-28T03:00:28.205Z,4.70
2022-10-28T03:02:54.556Z,4.97
2022-10-28T03:05:20.947Z,4.85
2022-10-28T03:07:47.310Z,4.88
2022-10-28T03:10:13.845Z,4.75
2022-10-28T03:12:40.214Z,4.82
2022-10-28T03:15:07.069Z,5.28
2022-10-28T03:17:33.497Z,5.63
2022-10-28T03:20:00.008Z,5.25
2022-10-28T03:22:26.477Z,5.63
2022-10-28T03:24:52.838Z,6.05
2022-10-28T03:27:19.190Z,5.93
2022-10-28T03:29:46.264Z,5.88
2022-10-28T03:32:13.242Z,6.07
2022-10-28T03:34:39.924Z,5.82
2022-10-28T03:37:06.532Z,5.82
2022-10-28T03:39:32.887Z,5.35
2022-10-28T03:41:59.249Z,6.30
2022-10-28T03:44:25.623Z,6.35
2022-10-28T03:46:52.059Z,6.07
2022-10-28T03:49:18.437Z,5.60
2022-10-28T03:51:44.820Z,5.00
2022-10-28T03:54:11.161Z,5.00
2022-10-28T03:56:40.397Z,5.80
2022-10-28T03:59:08.998Z,6.05
2022-10-28T04:01:35.778Z,6.70
2022-10-28T04:04:02.263Z,6.95
2022-10-28T04:06:28.645Z,5.55
2022-10-28T04:08:55.050Z,6.20
2022-10-28T04:11:21.427Z,6.07
2022-10-28T04:13:47.768Z,5.68
2022-10-28T04:16:14.124Z,5.68
2022-10-28T04:18:40.517Z,7.45
2022-10-28T04:21:06.922Z,6.75
2022-10-28T04:23:33.270Z,5.68
2022-10-28T04:25:59.663Z,5.68
2022-10-28T04:28:26.161Z,6.40
2022-10-28T04:30:52.538Z,5.35
2022-10-28T04:33:18.915Z,5.60
2022-10-28T04:35:45.279Z,6.80
2022-10-28T04:38:13.838Z,5.22
2022-10-28T04:40:40.240Z,5.38
2022-10-28T04:43:08.575Z,6.32
2022-10-28T04:45:36.540Z,6.32
2022-10-28T04:48:03.047Z,5.97
2022-10-28T04:50:29.409Z,5.20
2022-10-28T04:52:56.214Z,6.03
2022-10-28T04:55:22.975Z,5.15
2022-10-28T04:57:56.825Z,6.35
2022-10-28T05:00:24.561Z,7.18
2022-10-28T05:02:51.356Z,10.23
2022-10-28T05:05:18.539Z,11.35
2022-10-28T05:07:45.927Z,11.15
2022-10-28T05:10:15.329Z,10.88
2022-10-28T05:12:43.137Z,11.30
2022-10-28T05:15:11.039Z,9.98
2022-10-28T05:17:44.708Z,9.43
2022-10-28T05:20:12.201Z,9.00
2022-10-28T05:22:38.642Z,8.05
2022-10-28T05:25:05.308Z,8.15
2022-10-28T05:27:31.767Z,8.90
2022-10-28T05:29:58.138Z,7.88
2022-10-28T05:32:24.486Z,8.07
2022-10-28T05:34:50.853Z,7.40
2022-10-28T05:37:17.274Z,7.93
2022-10-28T05:39:43.674Z,6.75
2022-10-28T05:42:10.047Z,7.10
2022-10-28T05:44:36.408Z,6.75
2022-10-28T05:47:02.814Z,6.72
2022-10-28T05:49:29.166Z,7.70
2022-10-28T05:51:55.520Z,8.27
2022-10-28T05:54:21.850Z,8.13
2022-10-28T05:56:48.200Z,7.40
2022-10-28T05:59:14.577Z,7.97
2022-10-28T06:01:41.035Z,6.50
2022-10-28T06:04:07.566Z,6.32
2022-10-28T06:06:33.961Z,7.32
2022-10-28T06:09:01.563Z,6.35
2022-10-28T06:11:26.435Z,7.00
2022-10-28T06:13:52.827Z,7.28
2022-10-28T06:16:19.218Z,6.60
2022-10-28T06:18:45.597Z,7.38
2022-10-28T06:21:12.046Z,7.63
2022-10-28T06:23:38.446Z,7.72
2022-10-28T06:26:04.882Z,8.05
2022-10-28T06:28:31.463Z,7.43
2022-10-28T06:31:02.257Z,9.70
2022-10-28T06:33:28.617Z,9.30
2022-10-28T06:35:56.484Z,10.30
2022-10-28T06:38:27.286Z,8.55
2022-10-28T06:40:56.721Z,9.18
2022-10-28T06:43:23.561Z,9.82
2022-10-28T06:45:55.402Z,9.93
2022-10-28T06:48:23.955Z,9.05
2022-10-28T06:50:50.389Z,9.10
2022-10-28T06:53:16.787Z,9.25
2022-10-28T06:55:48.585Z,8.88
2022-10-28T06:58:15.319Z,8.13
2022-10-28T07:00:41.713Z,10.35
2022-10-28T07:03:09.814Z,8.60
2022-10-28T07:05:36.341Z,8.25
2022-10-28T07:08:02.771Z,7.13
2022-10-28T07:10:29.136Z,7.55
2022-10-28T07:12:55.756Z,8.85
2022-10-28T07:15:22.620Z,8.30
2022-10-28T07:17:56.433Z,7.13
2022-10-28T07:20:24.582Z,8.43
2022-10-28T07:22:58.990Z,7.65
2022-10-28T07:25:26.874Z,8.20
2022-10-28T07:27:53.578Z,9.27
2022-10-28T07:30:20.185Z,8.68
2022-10-28T07:32:46.545Z,8.48
2022-10-28T07:35:12.939Z,8.55
2022-10-28T07:37:39.639Z,9.52
2022-10-28T07:40:07.055Z,9.30
2022-10-28T07:42:34.310Z,9.93
2022-10-28T07:45:00.702Z,9.48
2022-10-28T07:47:27.085Z,9.15
2022-10-28T07:49:54.350Z,9.40
2022-10-28T07:52:21.936Z,8.70
2022-10-28T07:54:48.534Z,9.27
2022-10-28T07:57:14.888Z,8.88
2022-10-28T07:59:41.247Z,8.55
2022-10-28T08:02:07.668Z,10.20
2022-10-28T08:04:34.142Z,10.60
2022-10-28T08:07:00.501Z,7.75
2022-10-28T08:09:27.227Z,8.95
2022-10-28T08:11:55.834Z,9.23
2022-10-28T08:14:22.332Z,8.23
2022-10-28T08:16:48.670Z,9.40
2022-10-28T08:19:15.008Z,8.75
2022-10-28T08:21:41.372Z,8.95
2022-10-28T08:24:08.010Z,8.65
2022-10-28T08:26:34.690Z,9.50
2022-10-28T08:29:01.500Z,9.73
2022-10-28T08:31:27.958Z,9.48
2022-10-28T08:33:54.341Z,9.68
2022-10-28T08:36:20.703Z,10.50
2022-10-28T08:38:47.155Z,10.35
2022-10-28T08:41:21.019Z,9.65
2022-10-28T08:44:06.004Z,9.57
2022-10-28T08:46:58.707Z,8.40
2022-10-28T08:49:25.798Z,8.52
2022-10-28T08:51:56.694Z,8.48
2022-10-28T08:54:31.842Z,8.30
2022-10-28T08:57:01.317Z,10.05
2022-10-28T08:59:32.364Z,9.38
2022-10-28T09:02:11.125Z,8.38
2022-10-28T09:04:43.200Z,8.90
2022-10-28T09:07:14.357Z,8.65
2022-10-28T09:12:23.163Z,7.85
2022-10-28T09:15:21.548Z,8.60
2022-10-28T09:17:51.068Z,8.20
2022-10-28T09:20:21.077Z,8.52
2022-10-28T09:22:59.403Z,8.13
2022-10-28T09:25:49.936Z,7.93
2022-10-28T09:28:42.042Z,8.40
2022-10-28T09:31:16.828Z,8.15
2022-10-28T09:34:05.439Z,8.75
2022-10-28T09:36:42.119Z,8.00
2022-10-28T09:39:20.904Z,8.23
2022-10-28T09:41:50.907Z,8.20
2022-10-28T09:44:34.829Z,8.13
2022-10-28T09:47:05.321Z,8.68
2022-10-28T09:49:36.540Z,10.25
2022-10-28T09:54:40.230Z,12.95
2022-10-28T09:57:06.950Z,11.38
2022-10-28T09:59:34.066Z,11.15
2022-10-28T10:02:00.809Z,10.63
2022-10-28T10:04:31.266Z,10.15
2022-10-28T10:07:09.259Z,10.90
2022-10-28T10:09:38.650Z,10.75
2022-10-28T10:12:10.645Z,13.48
2022-10-28T10:14:40.745Z,14.50
2022-10-28T10:17:14.937Z,10.32
2022-10-28T10:20:01.865Z,8.93
2022-10-28T10:22:49.203Z,9.90
2022-10-28T10:25:18.818Z,10.02
2022-10-28T10:28:03.559Z,9.95
2022-10-28T10:30:50.823Z,9.88
2022-10-28T10:33:24.398Z,8.88
2022-10-28T10:36:00.186Z,9.18
2022-10-28T10:38:28.120Z,8.60
2022-10-28T10:40:54.703Z,8.30
2022-10-28T10:43:31.736Z,9.23
2022-10-28T10:46:16.340Z,10.77
2022-10-28T10:48:43.289Z,10.63
2022-10-28T10:51:17.920Z,8.85
2022-10-28T10:53:49.335Z,8.75
2022-10-28T10:56:25.473Z,8.63
2022-10-28T10:58:55.029Z,6.30
2022-10-28T11:01:24.983Z,6.38
2022-10-28T11:06:36.785Z,7.68
2022-10-28T11:09:06.461Z,8.85
2022-10-28T11:11:38.210Z,9.40
2022-10-28T11:14:10.505Z,8.85
2022-10-28T11:16:51.511Z,9.02
2022-10-28T11:19:38.258Z,9.15
2022-10-28T11:22:16.501Z,9.60
2022-10-28T11:25:04.693Z,9.27
2022-10-28T11:27:51.705Z,9.20
2022-10-28T11:30:32.273Z,9.77
2022-10-28T11:33:30.456Z,9.27
2022-10-28T11:36:20.079Z,9.05
2022-10-28T11:39:01.447Z,9.25
2022-10-28T11:41:45.996Z,10.18
2022-10-28T11:44:27.917Z,8.30
2022-10-28T11:47:32.701Z,7.03
2022-10-28T11:50:13.295Z,6.35
2022-10-28T11:53:05.159Z,9.20
2022-10-28T11:55:57.070Z,6.07
2022-10-28T11:58:36.588Z,6.13
2022-10-28T12:01:27.397Z,6.55
2022-10-28T12:04:19.716Z,6.93
2022-10-28T12:07:07.493Z,6.10
2022-10-28T12:10:14.768Z,6.60
2022-10-28T12:13:08.451Z,5.97
2022-10-28T12:15:56.672Z,28.63
2022-10-28T12:18:32.814Z,10.45
2022-10-28T12:21:24.243Z,26.33
2022-10-28T12:23:53.191Z,31.05
2022-10-28T12:26:23.112Z,22.33
2022-10-28T12:28:53.892Z,22.80
2022-10-28T12:31:28.605Z,7.15
2022-10-28T12:33:57.082Z,5.40
2022-10-28T12:36:29.632Z,5.47
2022-10-28T12:39:01.787Z,5.10
2022-10-28T12:41:46.542Z,4.70
2022-10-28T12:44:17.134Z,10.02
2022-10-28T12:47:42.158Z,10.65
2022-10-28T12:50:24.827Z,10.77
2022-10-28T12:53:18.563Z,10.70
2022-10-28T12:56:02.192Z,11.43
2022-10-28T12:58:47.396Z,15.48
2022-10-28T13:01:17.836Z,6.82
2022-10-28T13:03:44.297Z,11.27
2022-10-28T13:06:25.675Z,12.70
2022-10-28T13:09:01.330Z,7.55
2022-10-28T13:12:04.979Z,12.65
2022-10-28T13:14:56.151Z,8.93
2022-10-28T13:17:53.825Z,12.95
2022-10-28T13:20:48.834Z,13.35
2022-10-28T13:23:23.541Z,19.30
2022-10-28T13:26:06.033Z,9.93
2022-10-28T13:28:43.234Z,10.77
2022-10-28T13:31:09.904Z,18.45
2022-10-28T13:33:38.918Z,17.02
2022-10-28T13:36:16.333Z,8.07
2022-10-28T13:38:48.963Z,6.85
2022-10-28T13:41:42.233Z,7.55
2022-10-28T13:44:24.536Z,7.13
2022-10-28T13:46:56.945Z,6.70
2022-10-28T13:49:25.020Z,6.05
2022-10-28T13:52:07.922Z,6.20
2022-10-28T13:54:56.285Z,6.10
2022-10-28T13:57:33.044Z,6.43
2022-10-28T14:00:01.618Z,5.70
2022-10-28T14:02:38.459Z,5.88
2022-10-28T14:05:08.712Z,6.18
2022-10-28T14:07:38.262Z,6.47
2022-10-28T14:10:21.382Z,5.95
2022-10-28T14:12:52.426Z,5.60
2022-10-28T14:15:24.462Z,6.35
2022-10-28T14:18:00.908Z,5.05
2022-10-28T14:20:40.434Z,4.75
2022-10-28T14:23:22.100Z,5.30
2022-10-28T14:25:51.589Z,5.32
2022-10-28T14:28:27.000Z,5.00
2022-10-28T14:31:11.780Z,5.13
2022-10-28T14:33:44.354Z,5.35
2022-10-28T14:36:21.772Z,5.20
2022-10-28T14:39:03.467Z,4.57
2022-10-28T14:42:01.469Z,5.43
2022-10-28T14:44:53.443Z,4.80
2022-10-28T14:47:37.912Z,5.30
2022-10-28T14:50:18.989Z,4.78
2022-10-28T14:55:23.971Z,4.55
2022-10-28T14:57:50.454Z,4.38
2022-10-28T15:00:19.680Z,4.25
2022-10-28T15:02:46.843Z,5.05
2022-10-28T15:05:25.828Z,4.93
2022-10-28T15:07:52.929Z,5.32
2022-10-28T15:10:25.872Z,5.32
2022-10-28T15:12:54.562Z,4.63
2022-10-28T15:15:23.823Z,4.72
2022-10-28T15:17:50.874Z,4.75
2022-10-28T15:20:30.608Z,4.65
2022-10-28T15:23:15.909Z,5.80
2022-10-28T15:25:42.270Z,7.78
2022-10-28T15:28:11.498Z,7.63
2022-10-28T15:30:45.780Z,8.13
2022-10-28T15:33:40.112Z,8.43
2022-10-28T15:36:27.017Z,5.03
2022-10-28T15:39:08.632Z,5.15
2022-10-28T15:41:43.674Z,6.45
2022-10-28T15:44:31.473Z,5.10
2022-10-28T15:46:59.589Z,4.72
2022-10-28T15:49:38.931Z,5.22
2022-10-28T15:52:21.613Z,10.20
2022-10-28T15:54:55.605Z,5.88
2022-10-28T15:57:24.532Z,10.73
2022-10-28T16:00:23.048Z,5.45
2022-10-28T16:03:01.998Z,4.65
2022-10-28T16:05:31.381Z,4.90
2022-10-28T16:07:59.491Z,6.70
2022-10-28T16:10:31.120Z,5.00
2022-10-28T16:12:57.647Z,4.70
2022-10-28T16:15:24.065Z,4.90
2022-10-28T16:17:50.512Z,4.68
2022-10-28T16:20:21.711Z,5.25
2022-10-28T16:22:48.356Z,4.82
2022-10-28T16:25:20.607Z,4.53
2022-10-28T16:27:47.998Z,5.68
2022-10-28T16:30:15.187Z,5.70
2022-10-28T16:32:47.138Z,4.78
2022-10-28T16:35:15.961Z,5.70
2022-10-28T16:37:44.717Z,4.88
2022-10-28T16:40:30.819Z,4.78
2022-10-28T16:43:01.380Z,5.32
2022-10-28T16:45:27.856Z,4.50
2022-10-28T16:47:54.514Z,5.15
2022-10-28T16:50:21.277Z,5.70
2022-10-28T16:52:47.615Z,5.80
2022-10-28T16:55:16.570Z,5.97
2022-10-28T16:57:42.930Z,6.10
2022-10-28T17:00:12.865Z,5.72
2022-10-28T17:02:39.898Z,5.50
2022-10-28T17:05:15.720Z,5.63
2022-10-28T17:07:42.102Z,5.45
2022-10-28T17:10:09.363Z,4.43
2022-10-28T17:12:35.765Z,4.85
2022-10-28T17:15:02.152Z,4.78
2022-10-28T17:17:28.511Z,4.80
2022-10-28T17:19:55.142Z,4.97
2022-10-28T17:22:21.582Z,4.95
2022-10-28T17:24:48.020Z,5.05
2022-10-28T17:27:14.544Z,5.18
2022-10-28T17:29:40.995Z,4.72
2022-10-28T17:32:08.604Z,4.95
2022-10-28T17:34:35.703Z,4.78
2022-10-28T17:37:02.080Z,4.45
2022-10-28T17:39:28.936Z,4.43
2022-10-28T17:41:55.350Z,4.53
2022-10-28T17:44:21.980Z,4.78
2022-10-28T17:46:49.382Z,4.55
2022-10-28T17:49:15.824Z,5.30
2022-10-28T17:51:42.250Z,4.28
2022-10-28T17:54:08.768Z,3.83
2022-10-28T17:56:35.927Z,3.75
2022-10-28T17:59:04.160Z,4.28
2022-10-28T18:01:32.743Z,4.38
2022-10-28T18:03:59.302Z,3.70
2022-10-28T18:06:26.050Z,3.88
2022-10-28T18:08:52.720Z,3.40
2022-10-28T18:11:22.651Z,4.07
2022-10-28T18:13:51.461Z,3.75
2022-10-28T18:16:21.090Z,4.15
2022-10-28T18:18:47.740Z,4.03
2022-10-28T18:21:14.677Z,4.22
2022-10-28T18:23:41.197Z,5.70
2022-10-28T18:26:11.646Z,3.80
2022-10-28T18:28:39.228Z,3.75
2022-10-28T18:31:14.323Z,4.05
2022-10-28T18:33:42.121Z,4.45
2022-10-28T18:36:16.581Z,3.78
2022-10-28T18:38:43.318Z,4.40
2022-10-28T18:41:11.411Z,3.75
2022-10-28T18:43:38.087Z,4.20
2022-10-28T18:46:04.619Z,5.07
2022-10-28T18:48:31.433Z,5.50
2022-10-28T18:50:59.468Z,6.90
2022-10-28T18:53:26.377Z,6.47
2022-10-28T18:55:53.120Z,7.07
2022-10-28T18:58:19.504Z,6.43
2022-10-28T19:00:46.053Z,7.28
2022-10-28T19:03:20.231Z,6.38
2022-10-28T19:05:46.669Z,6.15
2022-10-28T19:08:13.849Z,6.55
2022-10-28T19:10:40.600Z,7.38
2022-10-28T19:13:07.092Z,7.50
2022-10-28T19:15:34.875Z,6.90
2022-10-28T19:18:01.330Z,7.30
2022-10-28T19:20:27.790Z,7.38
2022-10-28T19:22:54.674Z,7.00
2022-10-28T19:25:21.278Z,7.70
2022-10-28T19:27:47.657Z,7.00
2022-10-28T19:30:14.217Z,6.90
2022-10-28T19:32:40.652Z,6.53
2022-10-28T19:35:07.378Z,9.18
2022-10-28T19:37:33.814Z,5.32
2022-10-28T19:40:00.190Z,5.13
2022-10-28T19:42:26.736Z,5.32
2022-10-28T19:44:53.177Z,4.85
2022-10-28T19:47:19.642Z,4.90
2022-10-28T19:49:46.037Z,4.78
2022-10-28T19:52:12.482Z,5.82
2022-10-28T19:54:38.879Z,6.07
2022-10-28T19:57:05.321Z,6.70
2022-10-28T19:59:31.755Z,6.53
2022-10-28T20:01:58.241Z,5.82
2022-10-28T20:04:24.782Z,6.28
2022-10-28T20:06:51.180Z,6.30
2022-10-28T20:09:17.656Z,7.05
2022-10-28T20:11:44.561Z,6.22
2022-10-28T20:14:12.657Z,11.23
2022-10-28T20:16:42.307Z,4.15
2022-10-28T20:19:08.979Z,5.18
2022-10-28T20:21:35.498Z,5.22
2022-10-28T20:24:05.760Z,5.25
2022-10-28T20:26:34.879Z,34.00
2022-10-28T20:29:02.913Z,6.82
2022-10-28T20:31:31.235Z,5.32
2022-10-28T20:34:00.559Z,5.93
2022-10-28T20:36:32.377Z,5.30
2022-10-28T20:39:03.768Z,5.68
2022-10-28T20:41:32.413Z,5.35
2022-10-28T20:43:59.331Z,4.35
2022-10-28T20:46:26.647Z,4.35
2022-10-28T20:48:56.738Z,4.57
2022-10-28T20:51:25.302Z,4.32
2022-10-28T20:53:52.072Z,4.53
2022-10-28T20:56:21.534Z,4.78
2022-10-28T20:58:47.983Z,4.50
2022-10-28T21:01:17.505Z,4.78
2022-10-28T21:03:44.891Z,14.05
2022-10-28T21:08:41.093Z,13.80
2022-10-28T21:11:10.384Z,6.75
2022-10-28T21:13:36.849Z,5.63
2022-10-28T21:16:05.283Z,4.82
2022-10-28T21:18:32.219Z,5.57
2022-10-28T21:20:59.747Z,6.93
2022-10-28T21:23:27.427Z,6.05
2022-10-28T21:25:59.748Z,6.22
2022-10-28T21:28:28.602Z,6.80
2022-10-28T21:31:03.503Z,6.28
2022-10-28T21:33:30.204Z,5.65
2022-10-28T21:35:57.959Z,5.55
2022-10-28T21:38:26.006Z,5.80
2022-10-28T21:41:11.614Z,5.57
2022-10-28T21:43:40.819Z,5.13
2022-10-28T21:46:07.795Z,5.13
2022-10-28T21:48:35.597Z,4.80
2022-10-28T21:51:07.327Z,4.45
2022-10-28T21:53:37.625Z,5.72
2022-10-28T21:56:16.943Z,4.55
2022-10-28T21:58:44.645Z,5.15
2022-10-28T22:01:13.802Z,4.18
2022-10-28T22:03:40.349Z,4.80
2022-10-28T22:06:07.386Z,4.55
2022-10-28T22:08:34.167Z,4.95
2022-10-28T22:11:23.786Z,5.10
2022-10-28T22:14:01.529Z,5.20
2022-10-28T22:16:30.124Z,4.93
2022-10-28T22:18:58.279Z,5.13
2022-10-28T22:21:27.323Z,4.88
2022-10-28T22:23:54.006Z,5.30
2022-10-28T22:26:23.216Z,4.70
2022-10-28T22:28:50.501Z,5.05
2022-10-28T22:31:19.323Z,4.78
2022-10-28T22:36:15.685Z,5.10
2022-10-28T22:38:42.329Z,4.43
2022-10-28T22:41:12.947Z,4.55
2022-10-28T22:43:40.840Z,4.90
2022-10-28T22:46:07.605Z,5.18
2022-10-28T22:48:33.988Z,5.60
2022-10-28T22:51:00.922Z,5.07
2022-10-28T22:53:27.754Z,5.32
2022-10-28T22:55:54.800Z,6.07
2022-10-28T22:58:23.248Z,4.60
2022-10-28T23:00:50.253Z,5.30
2022-10-28T23:03:16.851Z,4.97
2022-10-28T23:05:43.256Z,5.30
2022-10-28T23:08:14.925Z,5.68
2022-10-28T23:10:41.556Z,5.07
2022-10-28T23:13:11.838Z,4.90
2022-10-28T23:15:38.274Z,4.83
2022-10-28T23:18:04.664Z,5.57
2022-10-28T23:20:31.075Z,4.70
2022-10-28T23:22:57.590Z,6.07
2022-10-28T23:25:24.004Z,7.93
2022-10-28T23:27:50.375Z,7.70
2022-10-28T23:30:17.310Z,7.40
2022-10-28T23:32:43.665Z,7.78
2022-10-28T23:35:10.111Z,7.63
2022-10-28T23:37:36.731Z,7.40
2022-10-28T23:40:03.491Z,7.82
2022-10-28T23:42:29.911Z,6.05
2022-10-28T23:44:56.329Z,7.90
2022-10-28T23:47:22.768Z,7.20
2022-10-28T23:49:49.142Z,7.15
2022-10-28T23:52:15.585Z,6.57
2022-10-28T23:54:42.008Z,6.07
2022-10-28T23:57:08.429Z,6.55
2022-10-28T23:59:34.985Z,6.40
